Time,TemperatureF,DewpointF,PressureIn,WindDirection,WindDirectionDegrees,WindSpeedMPH,WindSpeedGustMPH,Humidity,HourlyPrecipIn,Conditions,Clouds,dailyrainin,SoftwareType,DateUTC
2013-07-02 00:01:00,65.0,58.0,-100.00,ENE,78,4.0,9.0,79,0.00,,,0.00,,2013-07-02 05:01:00,
2013-07-02 00:32:00,63.0,55.0,-100.00,East,101,5.0,8.0,76,0.00,,,0.00,,2013-07-02 05:32:00,
2013-07-02 00:43:00,63.0,55.0,-100.00,East,101,5.0,8.0,76,0.00,,,0.00,,2013-07-02 05:43:00,
2013-07-02 00:53:00,63.0,55.0,-100.00,East,101,5.0,8.0,76,0.00,,,0.00,,2013-07-02 05:53:00,
2013-07-02 01:01:00,63.0,55.0,-100.00,East,101,5.0,8.0,76,0.00,,,0.00,,2013-07-02 06:01:00,
2013-07-02 01:34:00,61.0,54.0,-100.00,East,98,3.0,7.0,77,0.00,,,0.00,,2013-07-02 06:34:00,
2013-07-02 01:43:00,61.0,54.0,-100.00,East,98,3.0,7.0,77,0.00,,,0.00,,2013-07-02 06:43:00,
2013-07-02 01:53:00,61.0,54.0,-100.00,East,98,3.0,7.0,77,0.00,,,0.00,,2013-07-02 06:53:00,
2013-07-02 02:01:00,61.0,54.0,-100.00,East,98,3.0,7.0,77,0.00,,,0.00,,2013-07-02 07:01:00,
2013-07-02 02:34:00,60.0,54.0,-100.00,East,89,4.0,8.0,80,0.00,,,0.00,,2013-07-02 07:34:00,
2013-07-02 02:44:00,60.0,54.0,-100.00,East,89,4.0,8.0,80,0.00,,,0.00,,2013-07-02 07:44:00,
2013-07-02 02:53:00,60.0,54.0,-100.00,East,89,4.0,8.0,80,0.00,,,0.00,,2013-07-02 07:53:00,
2013-07-02 03:02:00,60.0,54.0,-100.00,East,89,4.0,8.0,80,0.00,,,0.00,,2013-07-02 08:02:00,
2013-07-02 03:33:00,58.0,53.0,-100.00,ENE,76,5.0,9.0,84,0.00,,,0.00,,2013-07-02 08:33:00,
2013-07-02 03:44:00,58.0,53.0,-100.00,ENE,76,5.0,9.0,84,0.00,,,0.00,,2013-07-02 08:44:00,
2013-07-02 03:53:00,58.0,53.0,-100.00,ENE,76,5.0,9.0,84,0.00,,,0.00,,2013-07-02 08:53:00,
2013-07-02 04:02:00,58.0,53.0,-100.00,ENE,76,5.0,9.0,84,0.00,,,0.00,,2013-07-02 09:02:00,
2013-07-02 04:33:00,57.0,53.0,-100.00,ENE,75,5.0,8.0,85,0.00,,,0.00,,2013-07-02 09:33:00,
2013-07-02 04:43:00,57.0,53.0,-100.00,ENE,75,5.0,8.0,85,0.00,,,0.00,,2013-07-02 09:43:00,
2013-07-02 04:52:00,57.0,53.0,-100.00,ENE,75,5.0,8.0,85,0.00,,,0.00,,2013-07-02 09:52:00,
2013-07-02 05:01:00,57.0,53.0,-100.00,ENE,75,5.0,8.0,85,0.00,,,0.00,,2013-07-02 10:01:00,
2013-07-02 05:33:00,56.0,51.0,-100.00,ENE,75,5.0,9.0,84,0.00,,,0.00,,2013-07-02 10:33:00,
2013-07-02 05:44:00,56.0,51.0,-100.00,ENE,75,5.0,9.0,84,0.00,,,0.00,,2013-07-02 10:44:00,
2013-07-02 05:52:00,56.0,51.0,-100.00,ENE,75,5.0,9.0,84,0.00,,,0.00,,2013-07-02 10:52:00,
2013-07-02 06:01:00,56.0,51.0,-100.00,ENE,75,5.0,9.0,84,0.00,,,0.00,,2013-07-02 11:01:00,
2013-07-02 06:33:00,56.0,51.0,-100.00,ENE,67,4.0,9.0,82,0.00,,,0.00,,2013-07-02 11:33:00,
2013-07-02 06:42:00,56.0,51.0,-100.00,ENE,67,4.0,9.0,82,0.00,,,0.00,,2013-07-02 11:42:00,
2013-07-02 06:52:00,56.0,51.0,-100.00,ENE,67,4.0,9.0,82,0.00,,,0.00,,2013-07-02 11:52:00,
2013-07-02 07:01:00,56.0,51.0,-100.00,ENE,67,4.0,9.0,82,0.00,,,0.00,,2013-07-02 12:01:00,
2013-07-02 07:33:00,58.0,49.0,-100.00,ENE,74,6.0,11.0,73,0.00,,,0.00,,2013-07-02 12:33:00,
2013-07-02 07:43:00,58.0,49.0,-100.00,ENE,74,6.0,11.0,73,0.00,,,0.00,,2013-07-02 12:43:00,
2013-07-02 07:52:00,58.0,49.0,-100.00,ENE,74,6.0,11.0,73,0.00,,,0.00,,2013-07-02 12:52:00,
2013-07-02 08:01:00,58.0,49.0,-100.00,ENE,74,6.0,11.0,73,0.00,,,0.00,,2013-07-02 13:01:00,
2013-07-02 08:34:00,62.0,51.0,-100.00,East,87,6.0,10.0,67,0.00,,,0.00,,2013-07-02 13:34:00,
2013-07-02 08:43:00,62.0,51.0,-100.00,East,87,6.0,10.0,67,0.00,,,0.00,,2013-07-02 13:43:00,
2013-07-02 08:52:00,62.0,51.0,-100.00,East,87,6.0,10.0,67,0.00,,,0.00,,2013-07-02 13:52:00,
2013-07-02 09:02:00,62.0,51.0,-100.00,East,87,6.0,10.0,67,0.00,,,0.00,,2013-07-02 14:02:00,
2013-07-02 09:33:00,66.0,53.0,-100.00,ESE,105,5.0,9.0,64,0.00,,,0.00,,2013-07-02 14:33:00,
2013-07-02 09:43:00,66.0,53.0,-100.00,ESE,105,5.0,9.0,64,0.00,,,0.00,,2013-07-02 14:43:00,
2013-07-02 09:53:00,66.0,53.0,-100.00,ESE,105,5.0,9.0,64,0.00,,,0.00,,2013-07-02 14:53:00,
2013-07-02 10:02:00,66.0,53.0,-100.00,ESE,105,5.0,9.0,64,0.00,,,0.00,,2013-07-02 15:02:00,
2013-07-02 10:33:00,70.0,54.0,-100.00,East,85,4.0,9.0,57,0.00,,,0.00,,2013-07-02 15:33:00,
2013-07-02 10:44:00,70.0,54.0,-100.00,East,85,4.0,9.0,57,0.00,,,0.00,,2013-07-02 15:44:00,
2013-07-02 10:53:00,70.0,54.0,-100.00,East,85,4.0,9.0,57,0.00,,,0.00,,2013-07-02 15:53:00,
2013-07-02 11:01:00,70.0,54.0,-100.00,East,85,4.0,9.0,57,0.00,,,0.00,,2013-07-02 16:01:00,
2013-07-02 11:33:00,71.0,52.0,-100.00,East,95,4.0,10.0,52,0.00,,,0.00,,2013-07-02 16:33:00,
2013-07-02 11:43:00,71.0,52.0,-100.00,East,95,4.0,10.0,52,0.00,,,0.00,,2013-07-02 16:43:00,
2013-07-02 11:52:00,71.0,52.0,-100.00,East,95,4.0,10.0,52,0.00,,,0.00,,2013-07-02 16:52:00,
2013-07-02 12:02:00,71.0,52.0,-100.00,East,95,4.0,10.0,52,0.00,,,0.00,,2013-07-02 17:02:00,
2013-07-02 12:33:00,73.0,50.0,-100.00,ENE,60,5.0,10.0,45,0.00,,,0.00,,2013-07-02 17:33:00,
2013-07-02 12:43:00,73.0,50.0,-100.00,ENE,60,5.0,10.0,45,0.00,,,0.00,,2013-07-02 17:43:00,
2013-07-02 12:53:00,73.0,50.0,-100.00,ENE,60,5.0,10.0,45,0.00,,,0.00,,2013-07-02 17:53:00,
2013-07-02 13:02:00,73.0,50.0,-100.00,ENE,60,5.0,10.0,45,0.00,,,0.00,,2013-07-02 18:02:00,
2013-07-02 13:34:00,75.0,52.0,-100.00,ENE,67,5.0,10.0,44,0.00,,,0.00,,2013-07-02 18:34:00,
2013-07-02 13:43:00,75.0,52.0,-100.00,ENE,67,5.0,10.0,44,0.00,,,0.00,,2013-07-02 18:43:00,
2013-07-02 13:53:00,75.0,52.0,-100.00,ENE,67,5.0,10.0,44,0.00,,,0.00,,2013-07-02 18:53:00,
2013-07-02 14:01:00,75.0,52.0,-100.00,ENE,67,5.0,10.0,44,0.00,,,0.00,,2013-07-02 19:01:00,
2013-07-02 14:34:00,75.0,51.0,-100.00,East,81,7.0,12.0,43,0.00,,,0.00,,2013-07-02 19:34:00,
2013-07-02 14:43:00,75.0,51.0,-100.00,East,81,7.0,12.0,43,0.00,,,0.00,,2013-07-02 19:43:00,
2013-07-02 14:53:00,75.0,51.0,-100.00,East,81,7.0,12.0,43,0.00,,,0.00,,2013-07-02 19:53:00,
2013-07-02 15:02:00,75.0,51.0,-100.00,East,81,7.0,12.0,43,0.00,,,0.00,,2013-07-02 20:02:00,
2013-07-02 15:33:00,76.0,51.0,-100.00,East,88,5.0,13.0,42,0.00,,,0.00,,2013-07-02 20:33:00,
2013-07-02 15:43:00,76.0,51.0,-100.00,East,88,5.0,13.0,42,0.00,,,0.00,,2013-07-02 20:43:00,
2013-07-02 15:52:00,76.0,51.0,-100.00,East,88,5.0,13.0,42,0.00,,,0.00,,2013-07-02 20:52:00,
2013-07-02 16:02:00,76.0,51.0,-100.00,East,88,5.0,13.0,42,0.00,,,0.00,,2013-07-02 21:02:00,
2013-07-02 16:33:00,77.0,51.0,-100.00,ENE,66,4.0,11.0,40,0.00,,,0.00,,2013-07-02 21:33:00,
2013-07-02 16:44:00,77.0,51.0,-100.00,ENE,66,4.0,11.0,40,0.00,,,0.00,,2013-07-02 21:44:00,
2013-07-02 16:52:00,77.0,51.0,-100.00,ENE,66,4.0,11.0,40,0.00,,,0.00,,2013-07-02 21:52:00,
2013-07-02 17:01:00,77.0,51.0,-100.00,ENE,66,4.0,11.0,40,0.00,,,0.00,,2013-07-02 22:01:00,
2013-07-02 17:34:00,77.0,49.0,-100.00,East,86,3.0,11.0,37,0.00,,,0.00,,2013-07-02 22:34:00,
2013-07-02 17:43:00,77.0,49.0,-100.00,East,86,3.0,11.0,37,0.00,,,0.00,,2013-07-02 22:43:00,
2013-07-02 17:53:00,77.0,49.0,-100.00,East,86,3.0,11.0,37,0.00,,,0.00,,2013-07-02 22:53:00,
2013-07-02 18:01:00,77.0,49.0,-100.00,East,86,3.0,11.0,37,0.00,,,0.00,,2013-07-02 23:01:00,
2013-07-02 18:33:00,77.0,49.0,-100.00,ESE,115,3.0,8.0,38,0.00,,,0.00,,2013-07-02 23:33:00,
2013-07-02 18:44:00,77.0,49.0,-100.00,ESE,115,3.0,8.0,38,0.00,,,0.00,,2013-07-02 23:44:00,
2013-07-02 18:52:00,77.0,49.0,-100.00,ESE,115,3.0,8.0,38,0.00,,,0.00,,2013-07-02 23:52:00,
2013-07-02 19:01:00,77.0,49.0,-100.00,ESE,115,3.0,8.0,38,0.00,,,0.00,,2013-07-03 00:01:00,
2013-07-02 19:33:00,75.0,48.0,-100.00,ESE,117,4.0,8.0,39,0.00,,,0.00,,2013-07-03 00:33:00,
2013-07-02 19:44:00,75.0,48.0,-100.00,ESE,117,4.0,8.0,39,0.00,,,0.00,,2013-07-03 00:44:00,
2013-07-02 19:52:00,75.0,48.0,-100.00,ESE,117,4.0,8.0,39,0.00,,,0.00,,2013-07-03 00:52:00,
2013-07-02 20:01:00,75.0,48.0,-100.00,ESE,117,4.0,8.0,39,0.00,,,0.00,,2013-07-03 01:01:00,
2013-07-02 20:05:00,70.0,50.0,-100.00,SE,139,4.0,8.0,49,0.00,,,0.00,,2013-07-03 01:05:00,
2013-07-02 20:33:00,70.0,50.0,-100.00,SE,139,4.0,8.0,49,0.00,,,0.00,,2013-07-03 01:33:00,
2013-07-02 20:43:00,70.0,50.0,-100.00,SE,139,4.0,8.0,49,0.00,,,0.00,,2013-07-03 01:43:00,
2013-07-02 20:59:00,70.0,50.0,-100.00,SE,139,4.0,8.0,49,0.00,,,0.00,,2013-07-03 01:59:00,
2013-07-02 21:40:00,64.0,47.0,-100.00,SE,126,4.0,11.0,55,0.00,,,0.00,,2013-07-03 02:40:00,
2013-07-02 22:04:00,64.0,47.0,-100.00,SE,126,4.0,11.0,55,0.00,,,0.00,,2013-07-03 03:04:00,
2013-07-02 22:36:00,62.0,45.0,-100.00,ESE,114,6.0,10.0,53,0.00,,,0.00,,2013-07-03 03:36:00,
2013-07-02 22:49:00,62.0,45.0,-100.00,ESE,114,6.0,10.0,53,0.00,,,0.00,,2013-07-03 03:49:00,
2013-07-02 22:58:00,62.0,45.0,-100.00,ESE,114,6.0,10.0,53,0.00,,,0.00,,2013-07-03 03:58:00,
2013-07-02 23:01:00,62.0,45.0,-100.00,ESE,114,6.0,10.0,53,0.00,,,0.00,,2013-07-03 04:01:00,
2013-07-02 23:34:00,58.0,47.0,-100.00,SE,131,0.0,8.0,66,0.00,,,0.00,,2013-07-03 04:34:00,
2013-07-02 23:43:00,58.0,47.0,-100.00,SE,131,0.0,8.0,66,0.00,,,0.00,,2013-07-03 04:43:00,
2013-07-02 23:52:00,58.0,47.0,-100.00,SE,131,0.0,8.0,66,0.00,,,0.00,,2013-07-03 04:52:00,